sensor_id;sensor_type;location;lat;lon;timestamp;temperature;humidity
25360;DHT22;13311;51.386;0.016;2023-04-03T00:00:51;7.60;93.50
25360;DHT22;13311;51.386;0.016;2023-04-03T00:05:52;7.60;93.50
25360;DHT22;13311;51.386;0.016;2023-04-03T00:10:53;7.50;93.60
25360;DHT22;13311;51.386;0.016;2023-04-03T00:15:54;7.50;93.70
25360;DHT22;13311;51.386;0.016;2023-04-03T00:20:55;7.50;93.70
25360;DHT22;13311;51.386;0.016;2023-04-03T00:25:55;7.50;93.70
25360;DHT22;13311;51.386;0.016;2023-04-03T00:30:56;7.50;93.80
25360;DHT22;13311;51.386;0.016;2023-04-03T00:35:57;7.50;93.80
25360;DHT22;13311;51.386;0.016;2023-04-03T00:40:58;7.40;93.90
25360;DHT22;13311;51.386;0.016;2023-04-03T00:45:59;7.40;94.10
25360;DHT22;13311;51.386;0.016;2023-04-03T00:51:02;7.30;94.10
25360;DHT22;13311;51.386;0.016;2023-04-03T00:56:09;7.30;94.30
25360;DHT22;13311;51.386;0.016;2023-04-03T01:01:15;7.20;94.50
25360;DHT22;13311;51.386;0.016;2023-04-03T01:06:24;7.10;94.80
25360;DHT22;13311;51.386;0.016;2023-04-03T01:11:31;7.10;94.70
25360;DHT22;13311;51.386;0.016;2023-04-03T01:16:32;6.90;94.80
25360;DHT22;13311;51.386;0.016;2023-04-03T01:21:59;7.00;95.00
25360;DHT22;13311;51.386;0.016;2023-04-03T01:27:05;6.90;95.00
25360;DHT22;13311;51.386;0.016;2023-04-03T01:32:07;6.90;95.00
25360;DHT22;13311;51.386;0.016;2023-04-03T01:37:08;6.80;95.00
25360;DHT22;13311;51.386;0.016;2023-04-03T01:42:09;6.80;95.00
25360;DHT22;13311;51.386;0.016;2023-04-03T01:47:10;6.80;95.10
25360;DHT22;13311;51.386;0.016;2023-04-03T01:52:11;6.70;95.20
25360;DHT22;13311;51.386;0.016;2023-04-03T01:57:12;6.70;95.20
25360;DHT22;13311;51.386;0.016;2023-04-03T02:02:13;6.60;95.30
25360;DHT22;13311;51.386;0.016;2023-04-03T02:07:15;6.50;95.30
25360;DHT22;13311;51.386;0.016;2023-04-03T02:12:15;6.50;95.10
25360;DHT22;13311;51.386;0.016;2023-04-03T02:17:16;6.50;95.00
25360;DHT22;13311;51.386;0.016;2023-04-03T02:22:17;6.50;95.00
25360;DHT22;13311;51.386;0.016;2023-04-03T02:27:18;6.50;94.90
25360;DHT22;13311;51.386;0.016;2023-04-03T02:32:18;6.30;94.80
25360;DHT22;13311;51.386;0.016;2023-04-03T02:37:19;6.30;94.90
25360;DHT22;13311;51.386;0.016;2023-04-03T02:42:21;6.10;94.90
25360;DHT22;13311;51.386;0.016;2023-04-03T02:47:22;6.10;94.80
25360;DHT22;13311;51.386;0.016;2023-04-03T02:52:22;6.00;94.90
25360;DHT22;13311;51.386;0.016;2023-04-03T02:57:23;6.00;95.00
25360;DHT22;13311;51.386;0.016;2023-04-03T03:02:24;5.90;94.90
25360;DHT22;13311;51.386;0.016;2023-04-03T03:07:25;5.80;95.00
25360;DHT22;13311;51.386;0.016;2023-04-03T03:12:26;5.70;95.10
25360;DHT22;13311;51.386;0.016;2023-04-03T03:17:27;5.60;95.10
25360;DHT22;13311;51.386;0.016;2023-04-03T03:22:28;5.60;95.10
25360;DHT22;13311;51.386;0.016;2023-04-03T03:27:28;5.50;94.90
25360;DHT22;13311;51.386;0.016;2023-04-03T03:32:29;5.50;95.00
25360;DHT22;13311;51.386;0.016;2023-04-03T03:37:30;5.40;95.10
25360;DHT22;13311;51.386;0.016;2023-04-03T03:42:31;5.40;95.10
25360;DHT22;13311;51.386;0.016;2023-04-03T03:47:32;5.40;95.10
25360;DHT22;13311;51.386;0.016;2023-04-03T03:52:32;5.30;95.10
25360;DHT22;13311;51.386;0.016;2023-04-03T03:57:33;5.30;95.00
25360;DHT22;13311;51.386;0.016;2023-04-03T04:02:34;5.20;95.10
25360;DHT22;13311;51.386;0.016;2023-04-03T04:07:35;5.20;95.10
25360;DHT22;13311;51.386;0.016;2023-04-03T04:12:35;5.20;95.20
25360;DHT22;13311;51.386;0.016;2023-04-03T04:17:36;5.20;95.20
25360;DHT22;13311;51.386;0.016;2023-04-03T04:22:37;5.20;95.30
25360;DHT22;13311;51.386;0.016;2023-04-03T04:27:39;5.20;95.40
25360;DHT22;13311;51.386;0.016;2023-04-03T04:32:39;5.20;95.40
25360;DHT22;13311;51.386;0.016;2023-04-03T04:37:41;5.20;95.40
25360;DHT22;13311;51.386;0.016;2023-04-03T04:42:41;5.30;95.50
25360;DHT22;13311;51.386;0.016;2023-04-03T04:47:43;5.30;95.60
25360;DHT22;13311;51.386;0.016;2023-04-03T04:52:44;5.30;95.40
25360;DHT22;13311;51.386;0.016;2023-04-03T04:57:44;5.30;95.40
25360;DHT22;13311;51.386;0.016;2023-04-03T05:02:45;5.40;95.50
25360;DHT22;13311;51.386;0.016;2023-04-03T05:07:46;5.40;95.50
25360;DHT22;13311;51.386;0.016;2023-04-03T05:12:46;5.40;95.70
25360;DHT22;13311;51.386;0.016;2023-04-03T05:17:47;5.40;95.70
25360;DHT22;13311;51.386;0.016;2023-04-03T05:22:48;5.50;95.80
25360;DHT22;13311;51.386;0.016;2023-04-03T05:27:49;5.50;95.80
25360;DHT22;13311;51.386;0.016;2023-04-03T05:32:50;5.60;95.80
25360;DHT22;13311;51.386;0.016;2023-04-03T05:37:51;5.60;95.80
25360;DHT22;13311;51.386;0.016;2023-04-03T05:42:51;5.70;95.70
25360;DHT22;13311;51.386;0.016;2023-04-03T05:47:53;5.70;95.90
25360;DHT22;13311;51.386;0.016;2023-04-03T05:52:57;5.80;96.00
25360;DHT22;13311;51.386;0.016;2023-04-03T05:57:59;5.80;95.90
25360;DHT22;13311;51.386;0.016;2023-04-03T06:02:59;5.90;95.90
25360;DHT22;13311;51.386;0.016;2023-04-03T06:08:00;6.00;96.00
25360;DHT22;13311;51.386;0.016;2023-04-03T06:13:01;6.00;96.00
25360;DHT22;13311;51.386;0.016;2023-04-03T06:18:02;6.00;96.10
25360;DHT22;13311;51.386;0.016;2023-04-03T06:23:03;6.10;96.10
25360;DHT22;13311;51.386;0.016;2023-04-03T06:28:04;6.20;96.10
25360;DHT22;13311;51.386;0.016;2023-04-03T06:33:05;6.30;96.20
25360;DHT22;13311;51.386;0.016;2023-04-03T06:38:06;6.40;96.40
25360;DHT22;13311;51.386;0.016;2023-04-03T06:43:09;6.50;96.10
25360;DHT22;13311;51.386;0.016;2023-04-03T06:48:10;6.60;96.10
25360;DHT22;13311;51.386;0.016;2023-04-03T06:53:11;6.60;96.10
25360;DHT22;13311;51.386;0.016;2023-04-03T06:58:12;6.70;96.20
25360;DHT22;13311;51.386;0.016;2023-04-03T07:03:14;6.80;96.40
25360;DHT22;13311;51.386;0.016;2023-04-03T07:08:14;7.10;96.60
25360;DHT22;13311;51.386;0.016;2023-04-03T07:13:15;8.00;96.70
25360;DHT22;13311;51.386;0.016;2023-04-03T07:18:16;9.10;95.40
25360;DHT22;13311;51.386;0.016;2023-04-03T07:23:17;10.10;93.30
25360;DHT22;13311;51.386;0.016;2023-04-03T07:28:20;10.70;91.30
25360;DHT22;13311;51.386;0.016;2023-04-03T07:33:23;10.70;90.60
25360;DHT22;13311;51.386;0.016;2023-04-03T07:38:24;10.60;90.40
25360;DHT22;13311;51.386;0.016;2023-04-03T07:43:25;10.30;91.20
25360;DHT22;13311;51.386;0.016;2023-04-03T07:48:26;10.10;91.80
25360;DHT22;13311;51.386;0.016;2023-04-03T07:53:28;10.10;92.00
25360;DHT22;13311;51.386;0.016;2023-04-03T07:58:29;10.10;92.00
25360;DHT22;13311;51.386;0.016;2023-04-03T08:03:30;10.30;92.30
25360;DHT22;13311;51.386;0.016;2023-04-03T08:08:31;10.50;92.50
25360;DHT22;13311;51.386;0.016;2023-04-03T08:13:33;10.80;92.20
25360;DHT22;13311;51.386;0.016;2023-04-03T08:18:35;11.20;92.30
25360;DHT22;13311;51.386;0.016;2023-04-03T08:23:37;11.60;91.90
25360;DHT22;13311;51.386;0.016;2023-04-03T08:28:39;12.10;91.50
25360;DHT22;13311;51.386;0.016;2023-04-03T08:33:40;12.30;91.00
25360;DHT22;13311;51.386;0.016;2023-04-03T08:38:41;12.60;90.90
25360;DHT22;13311;51.386;0.016;2023-04-03T08:49:33;12.90;90.10
25360;DHT22;13311;51.386;0.016;2023-04-03T08:54:40;13.30;90.00
25360;DHT22;13311;51.386;0.016;2023-04-03T08:59:49;13.20;89.90
25360;DHT22;13311;51.386;0.016;2023-04-03T09:04:49;13.20;90.20
25360;DHT22;13311;51.386;0.016;2023-04-03T09:09:50;13.50;89.80
25360;DHT22;13311;51.386;0.016;2023-04-03T09:15:20;13.80;89.10
25360;DHT22;13311;51.386;0.016;2023-04-03T09:26:07;13.30;87.50
25360;DHT22;13311;51.386;0.016;2023-04-03T09:31:26;13.20;87.90
25360;DHT22;13311;51.386;0.016;2023-04-03T09:36:45;13.00;88.00
25360;DHT22;13311;51.386;0.016;2023-04-03T09:42:18;13.20;88.70
25360;DHT22;13311;51.386;0.016;2023-04-03T09:47:27;13.20;88.70
25360;DHT22;13311;51.386;0.016;2023-04-03T09:52:33;13.20;89.50
25360;DHT22;13311;51.386;0.016;2023-04-03T09:57:34;13.00;88.50
25360;DHT22;13311;51.386;0.016;2023-04-03T10:02:38;12.70;88.60
25360;DHT22;13311;51.386;0.016;2023-04-03T10:07:39;12.40;88.70
25360;DHT22;13311;51.386;0.016;2023-04-03T10:12:40;12.30;90.00
25360;DHT22;13311;51.386;0.016;2023-04-03T10:17:48;12.30;90.30
25360;DHT22;13311;51.386;0.016;2023-04-03T10:23:14;12.20;89.70
25360;DHT22;13311;51.386;0.016;2023-04-03T10:39:30;11.60;90.10
25360;DHT22;13311;51.386;0.016;2023-04-03T10:44:36;11.60;90.70
25360;DHT22;13311;51.386;0.016;2023-04-03T10:50:01;11.60;90.00
25360;DHT22;13311;51.386;0.016;2023-04-03T11:00:35;11.60;88.90
25360;DHT22;13311;51.386;0.016;2023-04-03T11:05:47;11.70;87.00
25360;DHT22;13311;51.386;0.016;2023-04-03T11:10:51;11.70;84.40
25360;DHT22;13311;51.386;0.016;2023-04-03T11:15:57;11.80;84.90
25360;DHT22;13311;51.386;0.016;2023-04-03T11:21:06;11.70;84.30
25360;DHT22;13311;51.386;0.016;2023-04-03T11:26:14;11.80;85.90
25360;DHT22;13311;51.386;0.016;2023-04-03T11:36:48;12.30;82.50
25360;DHT22;13311;51.386;0.016;2023-04-03T11:41:50;12.20;82.10
25360;DHT22;13311;51.386;0.016;2023-04-03T11:46:54;12.30;82.40
25360;DHT22;13311;51.386;0.016;2023-04-03T11:51:56;12.30;81.10
25360;DHT22;13311;51.386;0.016;2023-04-03T11:56:57;12.50;82.00
25360;DHT22;13311;51.386;0.016;2023-04-03T12:01:58;12.80;79.80
25360;DHT22;13311;51.386;0.016;2023-04-03T12:07:22;13.10;79.60
25360;DHT22;13311;51.386;0.016;2023-04-03T12:17:34;13.20;78.40
25360;DHT22;13311;51.386;0.016;2023-04-03T12:22:34;13.40;79.30
25360;DHT22;13311;51.386;0.016;2023-04-03T12:27:40;13.50;77.80
25360;DHT22;13311;51.386;0.016;2023-04-03T12:33:17;13.70;78.60
25360;DHT22;13311;51.386;0.016;2023-04-03T12:38:53;13.50;77.80
25360;DHT22;13311;51.386;0.016;2023-04-03T12:49:33;13.60;77.80
25360;DHT22;13311;51.386;0.016;2023-04-03T12:54:38;13.70;75.20
25360;DHT22;13311;51.386;0.016;2023-04-03T12:59:43;13.50;74.00
25360;DHT22;13311;51.386;0.016;2023-04-03T13:04:47;13.50;75.80
25360;DHT22;13311;51.386;0.016;2023-04-03T13:10:12;13.80;74.90
25360;DHT22;13311;51.386;0.016;2023-04-03T13:15:25;13.90;72.40
25360;DHT22;13311;51.386;0.016;2023-04-03T13:20:30;13.90;75.00
25360;DHT22;13311;51.386;0.016;2023-04-03T13:25:35;14.00;75.50
25360;DHT22;13311;51.386;0.016;2023-04-03T13:30:39;14.10;74.70
25360;DHT22;13311;51.386;0.016;2023-04-03T13:35:41;14.10;73.80
25360;DHT22;13311;51.386;0.016;2023-04-03T13:40:53;13.90;75.20
25360;DHT22;13311;51.386;0.016;2023-04-03T13:46:02;13.80;75.00
25360;DHT22;13311;51.386;0.016;2023-04-03T13:56:31;13.50;73.90
25360;DHT22;13311;51.386;0.016;2023-04-03T14:01:47;13.20;75.80
25360;DHT22;13311;51.386;0.016;2023-04-03T14:06:54;13.20;76.30
25360;DHT22;13311;51.386;0.016;2023-04-03T14:11:59;13.40;77.50
25360;DHT22;13311;51.386;0.016;2023-04-03T14:17:14;13.20;75.20
25360;DHT22;13311;51.386;0.016;2023-04-03T14:22:27;13.20;76.30
25360;DHT22;13311;51.386;0.016;2023-04-03T14:27:42;13.10;76.30
25360;DHT22;13311;51.386;0.016;2023-04-03T14:32:45;12.90;77.10
25360;DHT22;13311;51.386;0.016;2023-04-03T14:37:48;12.90;77.20
25360;DHT22;13311;51.386;0.016;2023-04-03T14:42:49;12.90;77.30
25360;DHT22;13311;51.386;0.016;2023-04-03T14:47:54;12.80;78.90
25360;DHT22;13311;51.386;0.016;2023-04-03T14:52:57;12.70;79.10
25360;DHT22;13311;51.386;0.016;2023-04-03T14:57:59;12.60;79.60
25360;DHT22;13311;51.386;0.016;2023-04-03T15:03:00;12.60;78.20
25360;DHT22;13311;51.386;0.016;2023-04-03T15:08:01;12.40;77.80
25360;DHT22;13311;51.386;0.016;2023-04-03T15:13:01;12.30;75.10
25360;DHT22;13311;51.386;0.016;2023-04-03T15:18:03;12.30;76.70
25360;DHT22;13311;51.386;0.016;2023-04-03T15:23:05;12.30;78.20
25360;DHT22;13311;51.386;0.016;2023-04-03T15:28:09;12.20;77.30
25360;DHT22;13311;51.386;0.016;2023-04-03T15:33:37;12.10;77.50
25360;DHT22;13311;51.386;0.016;2023-04-03T15:38:38;12.10;76.10
25360;DHT22;13311;51.386;0.016;2023-04-03T15:43:39;12.20;73.20
25360;DHT22;13311;51.386;0.016;2023-04-03T15:48:39;12.00;75.70
25360;DHT22;13311;51.386;0.016;2023-04-03T15:53:40;11.90;75.60
25360;DHT22;13311;51.386;0.016;2023-04-03T15:58:42;11.70;78.50
25360;DHT22;13311;51.386;0.016;2023-04-03T16:03:43;11.70;79.70
25360;DHT22;13311;51.386;0.016;2023-04-03T16:08:46;11.70;77.20
25360;DHT22;13311;51.386;0.016;2023-04-03T16:13:48;11.70;72.90
25360;DHT22;13311;51.386;0.016;2023-04-03T16:18:49;11.70;71.80
25360;DHT22;13311;51.386;0.016;2023-04-03T16:23:50;11.80;73.10
25360;DHT22;13311;51.386;0.016;2023-04-03T16:28:52;11.70;78.10
25360;DHT22;13311;51.386;0.016;2023-04-03T16:33:55;11.50;79.80
25360;DHT22;13311;51.386;0.016;2023-04-03T16:38:56;11.40;81.70
25360;DHT22;13311;51.386;0.016;2023-04-03T16:43:57;11.30;82.20
25360;DHT22;13311;51.386;0.016;2023-04-03T16:48:57;11.30;82.00
25360;DHT22;13311;51.386;0.016;2023-04-03T16:53:58;11.20;81.80
25360;DHT22;13311;51.386;0.016;2023-04-03T16:58:59;11.20;82.40
25360;DHT22;13311;51.386;0.016;2023-04-03T17:04:00;11.20;82.10
25360;DHT22;13311;51.386;0.016;2023-04-03T17:09:00;11.00;82.60
25360;DHT22;13311;51.386;0.016;2023-04-03T17:14:02;11.00;81.70
25360;DHT22;13311;51.386;0.016;2023-04-03T17:19:03;10.90;82.00
25360;DHT22;13311;51.386;0.016;2023-04-03T17:24:06;10.90;80.50
25360;DHT22;13311;51.386;0.016;2023-04-03T17:29:08;10.80;80.10
25360;DHT22;13311;51.386;0.016;2023-04-03T17:34:09;10.80;80.10
25360;DHT22;13311;51.386;0.016;2023-04-03T17:39:12;10.60;81.60
25360;DHT22;13311;51.386;0.016;2023-04-03T17:44:13;10.40;82.70
25360;DHT22;13311;51.386;0.016;2023-04-03T17:49:14;10.40;83.10
25360;DHT22;13311;51.386;0.016;2023-04-03T17:54:18;10.40;83.10
25360;DHT22;13311;51.386;0.016;2023-04-03T17:59:19;10.30;84.30
25360;DHT22;13311;51.386;0.016;2023-04-03T18:04:20;10.20;83.20
25360;DHT22;13311;51.386;0.016;2023-04-03T18:09:24;10.20;83.40
25360;DHT22;13311;51.386;0.016;2023-04-03T18:14:27;10.10;82.60
25360;DHT22;13311;51.386;0.016;2023-04-03T18:19:28;9.80;83.80
25360;DHT22;13311;51.386;0.016;2023-04-03T18:24:31;9.70;85.00
25360;DHT22;13311;51.386;0.016;2023-04-03T18:29:36;9.60;85.70
25360;DHT22;13311;51.386;0.016;2023-04-03T18:34:38;9.30;86.70
25360;DHT22;13311;51.386;0.016;2023-04-03T18:39:40;9.30;86.80
25360;DHT22;13311;51.386;0.016;2023-04-03T18:44:44;9.10;87.30
25360;DHT22;13311;51.386;0.016;2023-04-03T18:49:46;9.10;87.60
25360;DHT22;13311;51.386;0.016;2023-04-03T18:54:47;9.00;87.40
25360;DHT22;13311;51.386;0.016;2023-04-03T18:59:48;8.90;87.90
25360;DHT22;13311;51.386;0.016;2023-04-03T19:04:51;8.90;88.10
25360;DHT22;13311;51.386;0.016;2023-04-03T19:09:55;8.80;88.40
25360;DHT22;13311;51.386;0.016;2023-04-03T19:14:56;8.70;88.20
25360;DHT22;13311;51.386;0.016;2023-04-03T19:19:57;8.70;88.30
25360;DHT22;13311;51.386;0.016;2023-04-03T19:24:59;8.80;87.90
25360;DHT22;13311;51.386;0.016;2023-04-03T19:30:00;8.80;87.80
25360;DHT22;13311;51.386;0.016;2023-04-03T19:35:01;8.70;87.80
25360;DHT22;13311;51.386;0.016;2023-04-03T19:40:03;8.60;88.10
25360;DHT22;13311;51.386;0.016;2023-04-03T19:45:05;8.70;88.30
25360;DHT22;13311;51.386;0.016;2023-04-03T19:50:07;8.60;88.50
25360;DHT22;13311;51.386;0.016;2023-04-03T19:55:08;8.50;89.00
25360;DHT22;13311;51.386;0.016;2023-04-03T20:00:10;8.50;88.70
25360;DHT22;13311;51.386;0.016;2023-04-03T20:05:12;8.60;88.60
25360;DHT22;13311;51.386;0.016;2023-04-03T20:10:14;8.60;88.40
25360;DHT22;13311;51.386;0.016;2023-04-03T20:15:16;8.60;88.50
25360;DHT22;13311;51.386;0.016;2023-04-03T20:20:17;8.60;88.50
25360;DHT22;13311;51.386;0.016;2023-04-03T20:25:18;8.60;88.40
25360;DHT22;13311;51.386;0.016;2023-04-03T20:30:19;8.60;88.40
25360;DHT22;13311;51.386;0.016;2023-04-03T20:35:20;8.50;88.50
25360;DHT22;13311;51.386;0.016;2023-04-03T20:40:21;8.60;88.80
25360;DHT22;13311;51.386;0.016;2023-04-03T20:45:22;8.60;89.40
25360;DHT22;13311;51.386;0.016;2023-04-03T20:50:25;8.60;89.30
25360;DHT22;13311;51.386;0.016;2023-04-03T20:55:27;8.60;89.50
25360;DHT22;13311;51.386;0.016;2023-04-03T21:00:29;8.60;89.90
25360;DHT22;13311;51.386;0.016;2023-04-03T21:05:31;8.50;89.80
25360;DHT22;13311;51.386;0.016;2023-04-03T21:21:32;8.20;90.40
25360;DHT22;13311;51.386;0.016;2023-04-03T21:26:37;8.20;90.80
25360;DHT22;13311;51.386;0.016;2023-04-03T21:31:57;8.10;90.80
25360;DHT22;13311;51.386;0.016;2023-04-03T21:37:03;8.10;90.90
25360;DHT22;13311;51.386;0.016;2023-04-03T21:42:05;8.00;90.90
25360;DHT22;13311;51.386;0.016;2023-04-03T21:47:06;7.90;91.10
25360;DHT22;13311;51.386;0.016;2023-04-03T21:52:07;7.90;91.30
25360;DHT22;13311;51.386;0.016;2023-04-03T21:57:08;7.80;91.40
25360;DHT22;13311;51.386;0.016;2023-04-03T22:02:12;7.70;91.50
25360;DHT22;13311;51.386;0.016;2023-04-03T22:07:13;7.70;91.60
25360;DHT22;13311;51.386;0.016;2023-04-03T22:12:14;7.60;91.70
25360;DHT22;13311;51.386;0.016;2023-04-03T22:17:15;7.60;91.60
25360;DHT22;13311;51.386;0.016;2023-04-03T22:22:16;7.50;91.80
25360;DHT22;13311;51.386;0.016;2023-04-03T22:27:17;7.40;91.80
25360;DHT22;13311;51.386;0.016;2023-04-03T22:32:17;7.40;91.90
25360;DHT22;13311;51.386;0.016;2023-04-03T22:37:18;7.30;91.80
25360;DHT22;13311;51.386;0.016;2023-04-03T22:42:18;7.20;92.00
25360;DHT22;13311;51.386;0.016;2023-04-03T22:47:20;7.20;92.30
25360;DHT22;13311;51.386;0.016;2023-04-03T22:52:21;7.10;92.40
25360;DHT22;13311;51.386;0.016;2023-04-03T22:57:22;7.00;92.40
25360;DHT22;13311;51.386;0.016;2023-04-03T23:02:22;7.00;92.40
25360;DHT22;13311;51.386;0.016;2023-04-03T23:07:23;6.90;92.40
25360;DHT22;13311;51.386;0.016;2023-04-03T23:12:24;6.70;92.30
25360;DHT22;13311;51.386;0.016;2023-04-03T23:17:24;6.60;92.40
25360;DHT22;13311;51.386;0.016;2023-04-03T23:22:26;6.60;92.50
25360;DHT22;13311;51.386;0.016;2023-04-03T23:27:27;6.50;92.50
25360;DHT22;13311;51.386;0.016;2023-04-03T23:32:28;6.50;92.20
25360;DHT22;13311;51.386;0.016;2023-04-03T23:37:29;6.50;92.30
25360;DHT22;13311;51.386;0.016;2023-04-03T23:42:30;6.50;92.20
25360;DHT22;13311;51.386;0.016;2023-04-03T23:47:30;6.40;92.50
25360;DHT22;13311;51.386;0.016;2023-04-03T23:52:31;6.30;92.40
25360;DHT22;13311;51.386;0.016;2023-04-03T23:57:32;6.20;92.40
